Time;durP1;ratioP1;P1;durP2;ratioP2;P2;SDS_P1;SDS_P2;PMS_P1;PMS_P2;Temp;Humidity;BMP_temperature;BMP_pressure;BME280_temperature;BME280_humidity;BME280_pressure;Samples;Min_cycle;Max_cycle;Signal;HPM_P1;HPM_P2
2021/10/30 00:01:14;;;;;;;9.68;7.40;;;9.20;99.90;;;;;;5130066;27;20397;-52
2021/10/30 00:03:42;;;;;;;15.68;9.38;;;9.30;99.90;;;;;;5117416;28;20208;-51
2021/10/30 00:06:09;;;;;;;10.30;8.20;;;9.20;99.90;;;;;;5121592;28;20222;-46
2021/10/30 00:08:36;;;;;;;17.45;9.85;;;9.20;99.90;;;;;;5114259;27;20288;-48
2021/10/30 00:11:04;;;;;;;12.80;8.27;;;9.10;99.90;;;;;;5107407;27;20234;-58
2021/10/30 00:13:31;;;;;;;12.45;8.07;;;9.20;99.90;;;;;;5104764;28;20256;-49
2021/10/30 00:15:58;;;;;;;14.43;9.88;;;9.40;99.90;;;;;;5101371;28;20199;-54
2021/10/30 00:18:26;;;;;;;13.32;9.43;;;9.30;99.90;;;;;;5103834;28;20217;-49
2021/10/30 00:20:54;;;;;;;10.35;9.25;;;9.20;99.90;;;;;;5116326;28;20506;-53
2021/10/30 00:23:22;;;;;;;11.30;8.60;;;9.30;99.90;;;;;;5111458;28;20202;-47
2021/10/30 00:25:49;;;;;;;11.50;8.38;;;9.30;99.90;;;;;;5120871;28;20235;-50
2021/10/30 00:28:16;;;;;;;15.98;9.27;;;9.30;99.90;;;;;;5129256;22;20329;-51
2021/10/30 00:30:44;;;;;;;11.32;8.63;;;9.30;99.90;;;;;;5082587;28;20249;-55
2021/10/30 00:33:11;;;;;;;13.93;9.52;;;9.30;99.90;;;;;;5087407;28;20209;-54
2021/10/30 00:35:39;;;;;;;10.70;7.95;;;9.40;99.90;;;;;;5088047;28;20218;-54
2021/10/30 00:38:06;;;;;;;12.98;8.18;;;9.40;99.90;;;;;;5069913;28;20196;-54
2021/10/30 00:40:34;;;;;;;11.63;8.75;;;9.30;99.90;;;;;;5092397;28;20247;-60
2021/10/30 00:43:01;;;;;;;14.98;9.90;;;9.00;99.90;;;;;;5089628;28;20196;-54
2021/10/30 00:45:29;;;;;;;13.27;10.73;;;8.90;99.90;;;;;;5082896;28;20197;-56
2021/10/30 00:47:56;;;;;;;13.02;9.65;;;9.00;99.90;;;;;;5091625;28;20264;-54
2021/10/30 00:50:24;;;;;;;11.32;9.20;;;9.10;99.90;;;;;;5088933;28;20259;-54
2021/10/30 00:52:54;;;;;;;21.90;8.73;;;9.00;99.90;;;;;;5084957;28;20209;-47
2021/10/30 00:55:23;;;;;;;10.52;8.93;;;8.80;99.90;;;;;;5087202;28;20196;-54
2021/10/30 00:57:52;;;;;;;13.00;9.73;;;8.70;99.90;;;;;;5092074;28;20207;-55
2021/10/30 01:00:19;;;;;;;13.88;9.60;;;8.80;99.90;;;;;;5086691;28;20336;-52
2021/10/30 01:02:46;;;;;;;17.30;8.40;;;8.60;99.90;;;;;;5080144;28;20246;-51
2021/10/30 01:05:14;;;;;;;15.35;9.80;;;8.80;99.90;;;;;;5080904;28;20577;-54
2021/10/30 01:07:41;;;;;;;11.65;9.50;;;9.10;99.90;;;;;;5082003;28;20262;-53
2021/10/30 01:10:09;;;;;;;9.27;8.27;;;9.10;99.90;;;;;;5091410;28;20220;-53
2021/10/30 01:12:36;;;;;;;15.32;7.70;;;9.20;99.90;;;;;;5098762;28;20242;-50
2021/10/30 01:15:06;;;;;;;13.38;8.52;;;9.40;99.90;;;;;;5086590;28;20240;-51
2021/10/30 01:17:34;;;;;;;14.43;10.10;;;9.30;99.90;;;;;;5080043;28;20222;-59
2021/10/30 01:20:03;;;;;;;12.10;8.77;;;9.30;99.90;;;;;;5089140;28;20219;-54
2021/10/30 01:22:35;;;;;;;13.48;8.15;;;9.30;99.90;;;;;;5095084;28;20254;-52
2021/10/30 01:25:03;;;;;;;13.15;8.70;;;9.40;99.90;;;;;;5081613;28;20203;-53
2021/10/30 01:27:30;;;;;;;11.75;9.25;;;9.30;99.90;;;;;;5083675;28;20292;-53
2021/10/30 01:29:57;;;;;;;13.82;9.05;;;9.60;99.90;;;;;;5091672;28;20236;-53
2021/10/30 01:32:24;;;;;;;10.98;8.70;;;9.60;99.90;;;;;;5088198;28;20222;-56
2021/10/30 01:34:51;;;;;;;13.05;8.70;;;9.80;99.90;;;;;;5099275;28;20208;-56
2021/10/30 01:37:19;;;;;;;10.93;9.48;;;9.70;99.90;;;;;;5088973;28;20226;-56
2021/10/30 01:39:46;;;;;;;11.13;8.95;;;9.50;99.90;;;;;;5098139;28;20223;-57
2021/10/30 01:42:13;;;;;;;9.13;7.80;;;9.80;99.90;;;;;;5091911;28;20421;-51
2021/10/30 01:44:40;;;;;;;9.77;8.60;;;9.70;99.90;;;;;;5088815;28;20257;-51
2021/10/30 01:47:07;;;;;;;12.23;9.35;;;9.60;99.90;;;;;;5082180;28;20227;-54
2021/10/30 01:49:34;;;;;;;13.95;9.35;;;9.80;99.90;;;;;;5098792;28;20227;-51
2021/10/30 01:52:01;;;;;;;15.98;9.57;;;9.70;99.90;;;;;;5083376;28;20227;-53
2021/10/30 01:54:28;;;;;;;18.42;10.23;;;9.90;99.90;;;;;;5084249;28;20199;-51
2021/10/30 01:56:56;;;;;;;11.38;9.15;;;9.80;99.90;;;;;;5080783;28;20246;-52
2021/10/30 01:59:23;;;;;;;12.57;9.32;;;9.80;99.90;;;;;;5082843;28;20259;-58
2021/10/30 02:01:50;;;;;;;13.07;9.73;;;9.70;99.90;;;;;;5085584;28;20209;-57
2021/10/30 02:04:18;;;;;;;9.43;8.43;;;9.60;99.90;;;;;;5085297;28;20199;-53
2021/10/30 02:06:45;;;;;;;10.77;8.85;;;9.50;99.90;;;;;;5069489;28;20222;-53
2021/10/30 02:09:13;;;;;;;11.25;8.27;;;9.50;99.90;;;;;;5080723;28;20461;-53
2021/10/30 02:11:40;;;;;;;12.52;8.82;;;9.40;99.90;;;;;;5086561;28;20243;-52
2021/10/30 02:14:07;;;;;;;13.07;8.65;;;9.40;99.90;;;;;;5090722;28;20195;-52
2021/10/30 02:16:34;;;;;;;10.57;8.38;;;9.50;99.90;;;;;;5084213;28;20349;-53
2021/10/30 02:19:02;;;;;;;10.27;7.40;;;9.50;99.90;;;;;;5091630;28;20221;-51
2021/10/30 02:21:29;;;;;;;12.60;8.63;;;9.40;99.90;;;;;;5091108;28;20282;-54
2021/10/30 02:23:56;;;;;;;12.93;7.95;;;9.40;99.90;;;;;;5091956;28;20221;-55
2021/10/30 02:26:24;;;;;;;9.57;7.93;;;9.40;99.90;;;;;;5086625;28;20231;-54
2021/10/30 02:28:51;;;;;;;8.80;7.95;;;9.30;99.90;;;;;;5091602;28;20283;-54
2021/10/30 02:31:18;;;;;;;9.60;7.88;;;9.50;99.90;;;;;;5097541;28;20362;-52
2021/10/30 02:33:45;;;;;;;11.48;9.05;;;9.60;99.90;;;;;;5100640;28;20208;-53
2021/10/30 02:36:13;;;;;;;8.07;7.28;;;9.60;99.90;;;;;;5096536;28;20198;-54
2021/10/30 02:38:40;;;;;;;9.45;8.20;;;9.70;99.90;;;;;;5085671;28;20271;-53
2021/10/30 02:41:07;;;;;;;12.02;8.65;;;9.60;99.90;;;;;;5101928;28;20219;-55
2021/10/30 02:43:34;;;;;;;18.45;8.73;;;9.50;99.90;;;;;;5088563;28;20201;-53
2021/10/30 02:46:01;;;;;;;10.93;8.77;;;9.50;99.90;;;;;;5091317;28;20491;-58
2021/10/30 02:48:28;;;;;;;18.50;9.90;;;9.60;99.90;;;;;;5087679;28;20456;-53
2021/10/30 02:50:55;;;;;;;15.27;9.57;;;9.60;99.90;;;;;;5070492;28;20204;-53
2021/10/30 02:53:23;;;;;;;9.70;8.35;;;9.50;99.90;;;;;;5091896;28;20537;-55
2021/10/30 02:55:50;;;;;;;10.85;9.02;;;9.40;99.90;;;;;;5067392;28;20261;-48
2021/10/30 02:58:18;;;;;;;14.18;9.27;;;9.40;99.90;;;;;;5099416;28;20528;-52
2021/10/30 03:00:45;;;;;;;11.10;7.80;;;9.30;99.90;;;;;;5090674;28;20187;-56
2021/10/30 03:03:13;;;;;;;14.25;9.10;;;9.20;99.90;;;;;;5087901;28;20200;-51
2021/10/30 03:05:40;;;;;;;12.52;9.13;;;9.20;99.90;;;;;;5093739;28;20510;-53
2021/10/30 03:08:07;;;;;;;10.75;8.57;;;9.10;99.90;;;;;;5089984;28;20238;-52
2021/10/30 03:10:34;;;;;;;15.38;9.50;;;9.20;99.90;;;;;;5097553;28;20241;-54
2021/10/30 03:13:02;;;;;;;15.45;8.98;;;9.20;99.90;;;;;;5086719;28;20195;-54
2021/10/30 03:15:29;;;;;;;12.57;9.10;;;9.10;99.90;;;;;;5094822;28;20273;-51
2021/10/30 03:17:56;;;;;;;15.25;8.82;;;9.10;99.90;;;;;;5086350;28;20478;-51
2021/10/30 03:20:23;;;;;;;14.75;9.30;;;9.10;99.90;;;;;;5087815;28;20310;-52
2021/10/30 03:22:51;;;;;;;12.68;8.30;;;9.10;99.90;;;;;;5089325;28;20222;-55
2021/10/30 03:25:18;;;;;;;12.85;9.77;;;9.10;99.90;;;;;;5091359;28;20213;-51
2021/10/30 03:27:46;;;;;;;10.48;8.70;;;9.20;99.90;;;;;;5092801;28;20492;-52
2021/10/30 03:30:13;;;;;;;14.50;10.02;;;9.30;99.90;;;;;;5093686;28;20533;-51
2021/10/30 03:32:41;;;;;;;9.70;8.02;;;9.30;99.90;;;;;;5092431;28;20204;-51
2021/10/30 03:35:08;;;;;;;10.07;9.07;;;9.30;99.90;;;;;;5093847;28;20207;-54
2021/10/30 03:37:36;;;;;;;16.27;9.70;;;9.40;99.90;;;;;;5098229;28;20227;-55
2021/10/30 03:40:05;;;;;;;13.80;9.10;;;9.40;99.90;;;;;;5092186;28;20453;-54
2021/10/30 03:42:33;;;;;;;12.27;8.35;;;9.40;99.90;;;;;;5101117;28;20199;-57
2021/10/30 03:45:01;;;;;;;10.52;8.15;;;9.40;99.90;;;;;;5091298;28;20249;-51
2021/10/30 03:47:29;;;;;;;10.70;7.78;;;9.40;99.90;;;;;;5088088;28;20396;-48
2021/10/30 03:49:59;;;;;;;11.57;8.73;;;9.20;99.90;;;;;;5094375;28;20226;-53
2021/10/30 03:52:26;;;;;;;15.00;10.52;;;9.10;99.90;;;;;;5081367;28;20427;-57
2021/10/30 03:54:54;;;;;;;10.05;8.98;;;9.20;99.90;;;;;;5080798;28;20200;-60
2021/10/30 03:57:22;;;;;;;11.63;8.65;;;9.00;99.90;;;;;;5082065;28;20207;-49
2021/10/30 03:59:49;;;;;;;12.40;8.52;;;9.10;99.90;;;;;;5080570;28;20227;-54
2021/10/30 04:02:16;;;;;;;11.07;9.00;;;9.20;99.90;;;;;;5082081;28;20449;-52
2021/10/30 04:04:43;;;;;;;12.50;8.10;;;9.20;99.90;;;;;;5080358;28;20204;-55
2021/10/30 04:07:10;;;;;;;13.40;9.10;;;9.30;99.90;;;;;;5089686;28;20285;-53
2021/10/30 04:09:37;;;;;;;10.00;8.38;;;9.40;99.90;;;;;;5080974;28;20270;-52
2021/10/30 04:12:05;;;;;;;11.73;8.57;;;9.40;99.90;;;;;;5097942;28;20209;-50
2021/10/30 04:14:32;;;;;;;11.63;9.57;;;9.50;99.90;;;;;;5087142;28;20400;-53
2021/10/30 04:16:59;;;;;;;9.98;8.55;;;9.40;99.90;;;;;;5092612;28;20204;-55
2021/10/30 04:19:26;;;;;;;16.02;10.10;;;9.50;99.90;;;;;;5086008;28;20223;-56
2021/10/30 04:21:54;;;;;;;11.52;8.25;;;9.50;99.90;;;;;;5095607;28;20191;-50
2021/10/30 04:24:21;;;;;;;12.27;10.13;;;9.50;99.90;;;;;;5080625;28;20200;-51
2021/10/30 04:26:48;;;;;;;14.52;10.23;;;9.50;99.90;;;;;;5094296;28;20214;-54
2021/10/30 04:29:16;;;;;;;15.05;10.45;;;9.60;99.90;;;;;;5091007;28;20224;-51
2021/10/30 04:31:44;;;;;;;15.95;10.30;;;9.40;99.90;;;;;;5087303;28;20245;-50
2021/10/30 04:34:18;;;;;;;17.40;10.27;;;9.20;99.90;;;;;;5091962;28;20217;-50
2021/10/30 04:36:48;;;;;;;11.57;10.35;;;8.90;99.90;;;;;;5088811;28;20263;-51
2021/10/30 04:39:19;;;;;;;17.77;10.55;;;8.90;99.90;;;;;;5088379;28;20273;-50
2021/10/30 04:41:46;;;;;;;12.48;10.63;;;8.80;99.90;;;;;;5091629;28;20427;-52
2021/10/30 04:44:13;;;;;;;10.27;8.48;;;8.80;99.90;;;;;;5090220;28;20428;-53
2021/10/30 04:46:42;;;;;;;16.73;10.82;;;8.80;99.90;;;;;;5092661;28;20198;-53
2021/10/30 04:49:10;;;;;;;10.27;9.20;;;8.50;99.90;;;;;;5100545;28;20259;-50
2021/10/30 04:51:37;;;;;;;14.07;8.98;;;8.30;99.90;;;;;;5087692;28;20199;-54
2021/10/30 04:54:04;;;;;;;10.55;9.45;;;8.30;99.90;;;;;;5088281;28;20383;-54
2021/10/30 04:56:31;;;;;;;12.75;9.38;;;8.10;99.90;;;;;;5089526;28;20461;-51
2021/10/30 04:58:59;;;;;;;13.60;10.80;;;8.00;99.90;;;;;;5089143;28;20257;-53
2021/10/30 05:01:26;;;;;;;13.80;10.48;;;7.80;99.90;;;;;;5082781;28;20428;-50
2021/10/30 05:03:54;;;;;;;13.82;10.15;;;7.80;99.90;;;;;;5091344;28;20278;-55
2021/10/30 05:06:21;;;;;;;13.93;10.63;;;7.90;99.90;;;;;;5091797;28;20259;-55
2021/10/30 05:08:48;;;;;;;15.55;11.45;;;7.90;99.90;;;;;;5099475;28;20246;-52
2021/10/30 05:11:15;;;;;;;14.50;10.50;;;7.90;99.90;;;;;;5097243;28;20202;-53
2021/10/30 05:13:43;;;;;;;17.45;11.00;;;7.80;99.90;;;;;;5098826;28;20251;-54
2021/10/30 05:16:11;;;;;;;21.08;10.80;;;7.70;99.90;;;;;;5065327;28;20425;-55
2021/10/30 05:18:39;;;;;;;21.67;10.25;;;7.80;99.90;;;;;;5094881;28;20217;-50
2021/10/30 05:21:06;;;;;;;19.00;10.73;;;7.80;99.90;;;;;;5082061;28;20202;-55
2021/10/30 05:23:38;;;;;;;13.88;10.32;;;7.60;99.90;;;;;;5082636;28;20256;-51
2021/10/30 05:26:06;;;;;;;13.95;10.35;;;7.60;99.90;;;;;;5080335;28;20210;-52
2021/10/30 05:28:35;;;;;;;19.60;12.35;;;7.70;99.90;;;;;;5090041;28;20227;-53
2021/10/30 05:31:02;;;;;;;13.00;10.85;;;7.80;99.90;;;;;;5089783;28;20598;-53
2021/10/30 05:33:30;;;;;;;18.67;10.90;;;7.70;99.90;;;;;;5092581;28;20322;-52
2021/10/30 05:35:57;;;;;;;18.52;13.18;;;7.80;99.90;;;;;;5086096;28;20414;-50
2021/10/30 05:38:24;;;;;;;14.48;11.30;;;7.60;99.90;;;;;;5089507;28;20265;-51
2021/10/30 05:40:52;;;;;;;20.55;12.07;;;7.60;99.90;;;;;;5083400;28;20199;-52
2021/10/30 05:43:19;;;;;;;17.38;11.80;;;7.30;99.90;;;;;;5090066;28;20419;-53
2021/10/30 05:45:47;;;;;;;13.48;10.30;;;7.30;99.90;;;;;;5083730;28;20203;-50
2021/10/30 05:48:16;;;;;;;14.88;10.90;;;7.10;99.90;;;;;;5082818;28;20541;-54
2021/10/30 05:50:43;;;;;;;20.38;11.52;;;7.00;99.90;;;;;;5088174;28;20202;-51
2021/10/30 05:53:10;;;;;;;14.05;11.88;;;7.20;99.90;;;;;;5095005;28;20252;-52
2021/10/30 05:55:37;;;;;;;15.40;10.77;;;7.30;99.90;;;;;;5097152;28;20378;-52
2021/10/30 05:58:05;;;;;;;12.63;10.88;;;7.40;99.90;;;;;;5099320;28;20247;-56
2021/10/30 06:00:32;;;;;;;18.50;11.63;;;7.40;99.90;;;;;;5099579;28;20198;-56
2021/10/30 06:02:59;;;;;;;13.50;11.48;;;7.50;99.90;;;;;;5087401;28;20282;-52
2021/10/30 06:05:27;;;;;;;17.63;10.88;;;7.50;99.90;;;;;;5087918;28;20243;-56
2021/10/30 06:07:56;;;;;;;12.63;9.88;;;7.40;99.90;;;;;;5092407;28;20225;-52
2021/10/30 06:10:24;;;;;;;17.38;8.77;;;7.30;99.90;;;;;;5077727;28;20453;-58
2021/10/30 06:12:51;;;;;;;18.60;15.02;;;7.40;99.90;;;;;;5092795;28;20207;-51
2021/10/30 06:15:18;;;;;;;15.98;11.20;;;7.40;99.90;;;;;;5093878;28;20200;-52
2021/10/30 06:17:46;;;;;;;16.73;12.43;;;7.30;99.90;;;;;;5089164;28;20213;-55
2021/10/30 06:20:13;;;;;;;18.92;12.23;;;7.40;99.90;;;;;;5089192;28;20263;-52
2021/10/30 06:22:42;;;;;;;14.63;11.75;;;7.40;99.90;;;;;;5088867;28;20199;-55
2021/10/30 06:25:14;;;;;;;13.63;10.80;;;7.50;99.90;;;;;;5087230;28;20199;-52
2021/10/30 06:27:42;;;;;;;16.05;10.70;;;7.40;99.90;;;;;;5091313;28;20283;-51
2021/10/30 06:30:11;;;;;;;15.23;9.52;;;7.60;99.90;;;;;;5100011;22;20282;-51
2021/10/30 06:32:39;;;;;;;14.63;11.07;;;7.60;99.90;;;;;;5081134;28;20202;-52
2021/10/30 06:35:08;;;;;;;15.85;9.23;;;7.60;99.90;;;;;;5081909;28;20198;-50
2021/10/30 06:37:40;;;;;;;14.77;10.05;;;7.60;99.90;;;;;;5089436;28;20206;-50
2021/10/30 06:40:11;;;;;;;14.35;10.85;;;7.60;99.90;;;;;;5079628;28;20257;-47
2021/10/30 06:42:38;;;;;;;14.10;8.88;;;7.60;99.90;;;;;;5077802;28;20214;-52
2021/10/30 06:45:06;;;;;;;13.60;10.20;;;7.80;99.90;;;;;;5090649;28;20206;-54
2021/10/30 06:47:34;;;;;;;12.15;10.07;;;8.00;99.90;;;;;;5079781;28;20220;-50
2021/10/30 06:50:03;;;;;;;12.73;10.10;;;8.00;99.90;;;;;;5078733;28;20541;-52
2021/10/30 06:52:37;;;;;;;17.80;9.85;;;8.00;99.90;;;;;;5078974;28;20222;-52
2021/10/30 06:55:07;;;;;;;14.07;9.98;;;8.00;99.90;;;;;;5081108;28;20210;-48
2021/10/30 06:57:35;;;;;;;13.15;10.50;;;8.20;99.90;;;;;;5086967;28;20493;-46
2021/10/30 07:00:06;;;;;;;13.20;11.48;;;8.20;99.90;;;;;;5094060;28;20221;-49
2021/10/30 07:02:33;;;;;;;19.63;12.10;;;8.30;99.90;;;;;;5095221;28;20244;-53
2021/10/30 07:05:06;;;;;;;15.95;10.25;;;8.40;99.90;;;;;;5084910;28;20200;-51
2021/10/30 07:07:33;;;;;;;15.00;10.43;;;8.50;99.90;;;;;;5090080;28;20209;-55
2021/10/30 07:10:00;;;;;;;13.27;10.38;;;8.70;99.90;;;;;;5088206;28;20294;-51
2021/10/30 07:12:33;;;;;;;16.30;11.80;;;8.60;99.90;;;;;;5101735;28;20534;-53
2021/10/30 07:15:08;;;;;;;18.02;12.02;;;8.70;99.90;;;;;;5095545;28;20197;-51
2021/10/30 07:17:36;;;;;;;16.48;11.48;;;8.80;99.90;;;;;;5093931;28;20203;-55
2021/10/30 07:20:05;;;;;;;13.65;11.27;;;9.20;99.90;;;;;;5095057;28;20235;-49
2021/10/30 07:22:39;;;;;;;15.45;9.93;;;10.00;99.90;;;;;;5097076;28;20268;-51
2021/10/30 07:25:06;;;;;;;14.80;11.88;;;10.90;99.90;;;;;;5084713;28;20223;-49
2021/10/30 07:27:34;;;;;;;13.73;11.30;;;11.40;99.90;;;;;;5083942;28;20201;-49
2021/10/30 07:30:01;;;;;;;19.33;10.77;;;12.20;99.90;;;;;;5086405;28;20229;-51
2021/10/30 07:32:28;;;;;;;14.25;10.90;;;12.90;99.90;;;;;;5090886;28;20195;-55
2021/10/30 07:34:55;;;;;;;18.27;12.35;;;13.80;99.90;;;;;;5085514;28;20449;-49
2021/10/30 07:37:22;;;;;;;13.65;10.63;;;15.00;99.80;;;;;;5096582;28;20194;-50
2021/10/30 07:39:51;;;;;;;14.67;11.53;;;16.10;97.80;;;;;;5091738;28;20224;-55
2021/10/30 07:42:18;;;;;;;15.07;12.03;;;17.30;95.60;;;;;;5083266;28;20417;-48
2021/10/30 07:44:46;;;;;;;15.80;11.80;;;18.00;93.40;;;;;;5093102;28;20456;-48
2021/10/30 07:47:13;;;;;;;13.17;11.80;;;17.60;93.30;;;;;;5082648;28;20402;-56
2021/10/30 07:49:40;;;;;;;13.07;11.60;;;17.50;92.90;;;;;;5094584;28;20464;-53
2021/10/30 07:52:09;;;;;;;15.63;13.20;;;17.70;92.60;;;;;;5082408;28;20461;-52
2021/10/30 07:54:37;;;;;;;15.93;11.63;;;18.10;91.70;;;;;;5086751;28;20752;-54
2021/10/30 07:57:09;;;;;;;14.63;12.50;;;16.80;92.90;;;;;;5091656;28;20413;-48
2021/10/30 07:59:38;;;;;;;15.57;11.43;;;15.20;95.20;;;;;;5091408;28;20524;-48
2021/10/30 08:02:06;;;;;;;17.60;11.37;;;15.10;95.70;;;;;;5090819;28;20412;-52
2021/10/30 08:04:34;;;;;;;16.40;11.57;;;15.40;95.60;;;;;;5091793;28;20434;-51
2021/10/30 08:07:03;;;;;;;12.73;10.67;;;16.10;94.70;;;;;;5087257;28;20446;-51
2021/10/30 08:09:31;;;;;;;18.20;10.60;;;17.00;94.50;;;;;;5081562;28;20486;-49
2021/10/30 08:11:58;;;;;;;14.20;10.87;;;17.80;91.90;;;;;;5093744;28;20397;-51
2021/10/30 08:14:26;;;;;;;15.00;12.00;;;18.20;91.40;;;;;;5083446;28;20435;-54
2021/10/30 08:16:53;;;;;;;12.30;10.03;;;18.50;91.40;;;;;;5092657;28;20437;-53
2021/10/30 08:19:21;;;;;;;12.63;10.50;;;18.20;91.20;;;;;;5092545;28;20497;-51
2021/10/30 08:21:48;;;;;;;13.43;10.37;;;18.70;90.20;;;;;;5083801;28;20958;-58
2021/10/30 08:24:16;;;;;;;18.50;11.43;;;19.40;88.30;;;;;;5084794;28;20788;-50
2021/10/30 08:26:43;;;;;;;12.77;9.63;;;19.20;88.40;;;;;;5080955;28;20403;-52
2021/10/30 08:29:10;;;;;;;12.03;9.60;;;19.50;88.20;;;;;;5081786;28;20481;-47
2021/10/30 08:31:37;;;;;;;9.60;8.67;;;19.40;87.30;;;;;;5094710;28;20427;-54
2021/10/30 08:34:05;;;;;;;12.93;9.13;;;19.50;86.00;;;;;;5086269;28;20426;-51
2021/10/30 08:36:32;;;;;;;12.00;9.17;;;19.30;85.60;;;;;;5089159;28;20402;-52
2021/10/30 08:39:02;;;;;;;10.07;8.90;;;18.70;87.60;;;;;;5087504;28;20461;-53
2021/10/30 08:41:30;;;;;;;11.03;9.37;;;18.40;88.40;;;;;;5089325;28;20406;-48
2021/10/30 08:44:02;;;;;;;12.33;7.40;;;18.80;86.60;;;;;;5086359;28;20430;-53
2021/10/30 08:46:31;;;;;;;14.20;8.90;;;19.00;85.10;;;;;;5094102;28;20406;-53
2021/10/30 08:49:01;;;;;;;9.50;7.10;;;19.00;84.30;;;;;;5081796;28;20491;-51
2021/10/30 08:51:33;;;;;;;8.10;6.93;;;19.00;84.40;;;;;;5080581;28;20417;-51
2021/10/30 08:54:04;;;;;;;8.60;7.70;;;18.90;84.30;;;;;;5079274;28;20729;-49
2021/10/30 08:56:32;;;;;;;9.80;8.30;;;18.20;86.00;;;;;;5083767;28;20409;-52
2021/10/30 08:59:00;;;;;;;11.80;9.50;;;17.50;88.00;;;;;;5081830;28;20643;-47
2021/10/30 09:01:27;;;;;;;10.00;8.03;;;17.10;90.20;;;;;;5091529;28;20777;-47
2021/10/30 09:04:01;;;;;;;10.07;8.50;;;16.60;90.70;;;;;;5088334;28;20526;-50
2021/10/30 09:06:43;;;;;;;16.50;8.30;;;16.20;91.60;;;;;;5087862;28;20421;-51
2021/10/30 09:09:18;;;;;;;12.13;8.50;;;15.80;91.80;;;;;;5085299;28;20452;-47
2021/10/30 09:11:57;;;;;;;10.00;8.00;;;15.70;92.60;;;;;;5085381;28;20454;-55
2021/10/30 09:14:27;;;;;;;12.10;8.87;;;15.60;93.20;;;;;;5092942;28;20462;-51
2021/10/30 09:17:19;;;;;;;11.27;8.00;;;15.40;93.70;;;;;;5087037;28;20466;-49
2021/10/30 09:19:52;;;;;;;12.43;8.63;;;15.30;94.30;;;;;;5090017;28;20787;-48
2021/10/30 09:22:22;;;;;;;14.53;7.50;;;15.20;94.00;;;;;;5090842;28;20491;-51
2021/10/30 09:25:03;;;;;;;14.97;9.03;;;15.20;93.60;;;;;;5084942;28;20776;-51
2021/10/30 09:27:55;;;;;;;11.15;8.00;;;15.20;94.10;;;;;;5083129;28;20659;-49
2021/10/30 09:30:29;;;;;;;12.10;8.23;;;15.10;94.30;;;;;;5088947;28;20244;-48
2021/10/30 09:32:58;;;;;;;10.05;7.60;;;15.10;94.30;;;;;;5088895;28;20217;-49
2021/10/30 09:35:27;;;;;;;10.13;7.63;;;15.10;94.20;;;;;;5089452;28;20278;-49
2021/10/30 09:37:55;;;;;;;9.13;8.15;;;15.10;94.30;;;;;;5093151;28;20436;-46
2021/10/30 09:40:29;;;;;;;8.70;7.70;;;15.20;94.90;;;;;;5078783;28;20222;-50
2021/10/30 09:43:16;;;;;;;12.18;8.38;;;15.20;94.70;;;;;;5084648;28;20453;-51
2021/10/30 09:45:45;;;;;;;9.10;7.47;;;15.10;94.90;;;;;;5077697;28;20249;-49
2021/10/30 09:48:21;;;;;;;14.25;8.45;;;15.10;95.00;;;;;;5078883;28;20448;-50
2021/10/30 09:50:57;;;;;;;11.50;8.65;;;15.20;95.20;;;;;;5078772;28;20219;-53
2021/10/30 09:53:39;;;;;;;7.93;7.13;;;15.20;95.50;;;;;;5078362;28;20199;-48
2021/10/30 09:56:09;;;;;;;8.70;7.25;;;15.40;95.50;;;;;;5079977;28;20200;-58
2021/10/30 09:58:55;;;;;;;9.25;6.45;;;15.40;95.00;;;;;;5080986;28;20205;-57
2021/10/30 10:01:21;;;;;;;10.80;8.18;;;15.40;95.50;;;;;;5085851;28;20203;-56
2021/10/30 10:03:51;;;;;;;11.10;7.43;;;15.40;95.30;;;;;;5081614;28;20230;-50
2021/10/30 10:06:23;;;;;;;8.63;6.80;;;15.30;95.90;;;;;;5078317;28;20241;-51
2021/10/30 10:08:51;;;;;;;11.43;7.38;;;15.40;94.90;;;;;;5086379;28;20285;-48
2021/10/30 10:11:19;;;;;;;7.75;6.57;;;15.40;94.60;;;;;;5084154;28;20505;-50
2021/10/30 10:13:50;;;;;;;7.97;6.53;;;15.50;94.80;;;;;;5085828;28;20224;-50
2021/10/30 10:16:22;;;;;;;9.45;6.65;;;15.70;93.70;;;;;;5069022;28;20203;-53
2021/10/30 10:18:51;;;;;;;10.00;6.77;;;15.70;93.00;;;;;;5078434;28;20261;-48
2021/10/30 10:21:32;;;;;;;10.17;6.83;;;15.60;93.20;;;;;;5078420;28;20456;-51
2021/10/30 10:23:59;;;;;;;7.95;5.90;;;15.70;93.00;;;;;;5078187;28;20429;-54
2021/10/30 10:26:45;;;;;;;7.78;6.97;;;15.60;92.90;;;;;;5078818;28;20204;-51
2021/10/30 10:29:26;;;;;;;8.35;6.90;;;15.60;92.50;;;;;;5078128;28;20605;-51
2021/10/30 10:31:53;;;;;;;8.13;7.07;;;15.60;92.70;;;;;;5079670;28;20399;-54
2021/10/30 10:34:35;;;;;;;9.73;6.57;;;15.60;92.80;;;;;;5086467;28;20439;-50
2021/10/30 10:37:22;;;;;;;10.67;7.60;;;15.70;93.00;;;;;;5084814;28;20205;-52
2021/10/30 10:39:54;;;;;;;7.25;6.47;;;15.80;93.40;;;;;;5087994;28;20448;-54
2021/10/30 10:42:33;;;;;;;8.63;5.90;;;15.80;93.40;;;;;;5092479;28;20212;-50
2021/10/30 10:45:05;;;;;;;7.90;7.03;;;15.90;93.90;;;;;;5086568;28;20435;-52
2021/10/30 10:47:35;;;;;;;6.67;6.07;;;15.90;94.10;;;;;;5089558;28;20442;-50
2021/10/30 10:50:08;;;;;;;7.10;6.40;;;15.90;94.40;;;;;;5085014;28;20545;-50
2021/10/30 10:52:35;;;;;;;8.30;7.40;;;16.00;94.80;;;;;;5083452;28;20408;-51
2021/10/30 10:55:05;;;;;;;6.37;5.77;;;16.00;95.00;;;;;;5086240;28;20429;-52
2021/10/30 10:57:47;;;;;;;10.00;7.53;;;16.10;95.10;;;;;;5080492;28;20431;-52
2021/10/30 11:00:16;;;;;;;9.00;6.57;;;16.20;95.30;;;;;;5084782;28;20439;-48
2021/10/30 11:02:48;;;;;;;9.83;7.73;;;16.40;95.40;;;;;;5081388;28;20451;-50
2021/10/30 11:05:18;;;;;;;9.70;7.73;;;16.40;95.10;;;;;;5080951;28;20443;-51
2021/10/30 11:08:08;;;;;;;9.13;6.90;;;16.50;95.30;;;;;;5085626;28;20466;-47
2021/10/30 11:10:42;;;;;;;9.80;7.37;;;16.50;95.00;;;;;;5090275;28;20843;-47
2021/10/30 11:13:17;;;;;;;8.33;6.40;;;16.60;95.10;;;;;;5095418;28;20756;-54
2021/10/30 11:15:53;;;;;;;10.30;5.90;;;16.70;95.00;;;;;;5097857;28;20585;-54
2021/10/30 11:18:27;;;;;;;10.33;7.00;;;16.80;94.90;;;;;;5097441;28;20440;-51
2021/10/30 11:21:21;;;;;;;7.57;5.80;;;16.80;95.10;;;;;;5099855;28;20420;-53
2021/10/30 11:23:54;;;;;;;7.77;5.73;;;17.00;94.00;;;;;;5099819;28;20460;-50
2021/10/30 11:26:26;;;;;;;8.03;5.40;;;17.10;93.40;;;;;;5095766;28;20413;-52
2021/10/30 11:29:03;;;;;;;8.60;6.40;;;17.10;93.40;;;;;;5085265;28;20487;-53
2021/10/30 11:31:31;;;;;;;6.97;5.60;;;17.20;93.70;;;;;;5088318;28;20436;-48
2021/10/30 11:33:59;;;;;;;8.43;5.57;;;17.30;92.80;;;;;;5084161;28;20777;-51
2021/10/30 11:36:31;;;;;;;7.87;6.30;;;17.30;93.10;;;;;;5086540;28;20475;-53
2021/10/30 11:39:00;;;;;;;6.93;5.53;;;17.40;93.20;;;;;;5085909;28;20781;-48
2021/10/30 11:41:33;;;;;;;13.00;5.60;;;17.40;93.00;;;;;;5094288;28;20435;-50
2021/10/30 11:44:05;;;;;;;6.77;5.80;;;17.50;92.30;;;;;;5096483;28;20704;-50
2021/10/30 11:47:05;;;;;;;6.43;4.97;;;17.60;91.70;;;;;;5081319;28;20733;-50
2021/10/30 11:49:34;;;;;;;7.67;6.60;;;17.70;91.30;;;;;;5060451;28;20668;-50
2021/10/30 11:52:10;;;;;;;7.00;5.40;;;17.90;91.10;;;;;;5082901;28;20447;-52
2021/10/30 11:54:37;;;;;;;7.73;6.03;;;17.90;90.70;;;;;;5087898;28;20437;-51
2021/10/30 11:57:07;;;;;;;6.93;5.43;;;17.90;90.80;;;;;;5082583;28;20481;-49
2021/10/30 11:59:34;;;;;;;7.53;5.83;;;17.90;90.50;;;;;;5083351;28;20437;-53
2021/10/30 12:02:01;;;;;;;6.93;5.63;;;18.00;90.30;;;;;;5080207;28;20526;-50
2021/10/30 12:04:36;;;;;;;6.47;4.70;;;18.00;90.30;;;;;;5068047;28;20413;-50
2021/10/30 12:07:10;;;;;;;7.70;6.90;;;18.00;90.10;;;;;;5082031;28;20409;-49
2021/10/30 12:09:41;;;;;;;6.57;5.90;;;18.10;90.20;;;;;;5082951;28;20460;-47
2021/10/30 12:12:19;;;;;;;6.97;6.07;;;18.10;90.60;;;;;;5081821;28;20436;-49
2021/10/30 12:14:48;;;;;;;6.13;5.00;;;18.20;90.10;;;;;;5086294;28;20438;-51
2021/10/30 12:17:30;;;;;;;7.20;6.13;;;18.30;90.30;;;;;;5083697;28;20603;-47
2021/10/30 12:20:09;;;;;;;8.90;6.43;;;18.20;89.80;;;;;;5084681;28;20504;-50
2021/10/30 12:22:44;;;;;;;7.10;5.03;;;18.30;88.30;;;;;;5080425;28;20414;-49
2021/10/30 12:25:26;;;;;;;8.10;6.17;;;18.40;86.20;;;;;;5082213;28;20664;-52
2021/10/30 12:27:56;;;;;;;6.90;5.50;;;18.30;87.20;;;;;;5087189;28;20463;-51
2021/10/30 12:30:35;;;;;;;9.60;6.30;;;18.30;85.50;;;;;;5085602;28;20842;-52
2021/10/30 12:33:13;;;;;;;6.93;6.23;;;18.40;86.50;;;;;;5089681;28;20753;-52
2021/10/30 12:35:48;;;;;;;6.13;5.37;;;18.50;87.00;;;;;;5084084;28;20438;-55
2021/10/30 12:38:18;;;;;;;8.70;6.13;;;18.50;88.00;;;;;;5085807;28;20459;-50
2021/10/30 12:40:48;;;;;;;5.47;4.87;;;18.40;87.10;;;;;;5087907;28;20433;-52
2021/10/30 12:43:30;;;;;;;6.00;5.40;;;18.40;88.40;;;;;;5084669;28;20438;-50
2021/10/30 12:46:03;;;;;;;6.73;5.83;;;18.40;89.60;;;;;;5090500;28;20513;-51
2021/10/30 12:48:45;;;;;;;6.87;5.73;;;18.40;89.30;;;;;;5084327;28;20791;-48
2021/10/30 12:51:17;;;;;;;7.63;6.90;;;18.50;90.00;;;;;;5081215;28;20418;-52
2021/10/30 12:53:53;;;;;;;5.87;5.13;;;18.50;90.20;;;;;;5084077;28;20770;-50
2021/10/30 12:56:22;;;;;;;6.00;5.40;;;18.40;90.40;;;;;;5082960;28;20402;-49